sensor_id;sensor_type;location;lat;lon;timestamp;temperature;humidity
810;DHT22;387;48.772;9.186;2023-01-16T00:00:52;3.80;76.20
810;DHT22;387;48.772;9.186;2023-01-16T00:03:18;3.90;75.80
810;DHT22;387;48.772;9.186;2023-01-16T00:05:44;4.00;75.80
810;DHT22;387;48.772;9.186;2023-01-16T00:08:10;4.10;75.40
810;DHT22;387;48.772;9.186;2023-01-16T00:10:35;4.10;75.40
810;DHT22;387;48.772;9.186;2023-01-16T00:13:01;4.20;74.80
810;DHT22;387;48.772;9.186;2023-01-16T00:15:27;4.20;74.60
810;DHT22;387;48.772;9.186;2023-01-16T00:17:53;4.20;74.60
810;DHT22;387;48.772;9.186;2023-01-16T00:20:18;4.30;74.30
810;DHT22;387;48.772;9.186;2023-01-16T00:22:44;4.30;74.20
810;DHT22;387;48.772;9.186;2023-01-16T00:25:10;4.40;74.20
810;DHT22;387;48.772;9.186;2023-01-16T00:27:36;4.40;74.20
810;DHT22;387;48.772;9.186;2023-01-16T00:30:03;4.50;74.00
810;DHT22;387;48.772;9.186;2023-01-16T00:32:29;4.50;73.70
810;DHT22;387;48.772;9.186;2023-01-16T00:34:54;4.50;73.60
810;DHT22;387;48.772;9.186;2023-01-16T00:37:20;4.40;73.60
810;DHT22;387;48.772;9.186;2023-01-16T00:39:46;4.40;73.90
810;DHT22;387;48.772;9.186;2023-01-16T00:42:11;4.30;74.00
810;DHT22;387;48.772;9.186;2023-01-16T00:44:37;4.40;74.00
810;DHT22;387;48.772;9.186;2023-01-16T00:47:02;4.40;74.20
810;DHT22;387;48.772;9.186;2023-01-16T00:49:28;4.40;73.90
810;DHT22;387;48.772;9.186;2023-01-16T00:51:55;4.50;73.90
810;DHT22;387;48.772;9.186;2023-01-16T00:54:20;4.40;73.70
810;DHT22;387;48.772;9.186;2023-01-16T00:56:46;4.40;73.90
810;DHT22;387;48.772;9.186;2023-01-16T00:59:12;4.40;74.00
810;DHT22;387;48.772;9.186;2023-01-16T01:01:37;4.30;73.90
810;DHT22;387;48.772;9.186;2023-01-16T01:04:04;4.30;74.00
810;DHT22;387;48.772;9.186;2023-01-16T01:06:29;4.30;74.20
810;DHT22;387;48.772;9.186;2023-01-16T01:08:55;4.30;74.20
810;DHT22;387;48.772;9.186;2023-01-16T01:11:21;4.20;74.20
810;DHT22;387;48.772;9.186;2023-01-16T01:13:48;4.20;74.30
810;DHT22;387;48.772;9.186;2023-01-16T01:16:15;4.20;74.30
810;DHT22;387;48.772;9.186;2023-01-16T01:18:40;4.20;74.30
810;DHT22;387;48.772;9.186;2023-01-16T01:21:07;4.20;74.30
810;DHT22;387;48.772;9.186;2023-01-16T01:23:33;4.20;74.50
810;DHT22;387;48.772;9.186;2023-01-16T01:26:04;4.20;74.30
810;DHT22;387;48.772;9.186;2023-01-16T01:28:30;4.20;74.50
810;DHT22;387;48.772;9.186;2023-01-16T01:30:55;4.20;74.30
810;DHT22;387;48.772;9.186;2023-01-16T01:33:21;4.20;74.50
810;DHT22;387;48.772;9.186;2023-01-16T01:35:46;4.20;74.30
810;DHT22;387;48.772;9.186;2023-01-16T01:38:12;4.20;74.50
810;DHT22;387;48.772;9.186;2023-01-16T01:40:37;4.20;74.30
810;DHT22;387;48.772;9.186;2023-01-16T01:43:08;4.20;74.50
810;DHT22;387;48.772;9.186;2023-01-16T01:45:34;4.10;74.60
810;DHT22;387;48.772;9.186;2023-01-16T01:48:24;4.10;74.90
810;DHT22;387;48.772;9.186;2023-01-16T01:53:36;4.10;74.80
810;DHT22;387;48.772;9.186;2023-01-16T01:56:30;4.00;75.20
810;DHT22;387;48.772;9.186;2023-01-16T01:58:57;4.00;75.50
810;DHT22;387;48.772;9.186;2023-01-16T02:01:25;4.00;75.50
810;DHT22;387;48.772;9.186;2023-01-16T02:04:01;3.90;75.50
810;DHT22;387;48.772;9.186;2023-01-16T02:06:36;3.90;75.70
810;DHT22;387;48.772;9.186;2023-01-16T02:09:03;3.90;75.70
810;DHT22;387;48.772;9.186;2023-01-16T02:11:39;3.80;75.70
810;DHT22;387;48.772;9.186;2023-01-16T02:14:09;3.90;75.70
810;DHT22;387;48.772;9.186;2023-01-16T02:16:37;3.90;75.70
810;DHT22;387;48.772;9.186;2023-01-16T02:19:50;3.90;75.70
810;DHT22;387;48.772;9.186;2023-01-16T02:33:28;4.00;75.10
810;DHT22;387;48.772;9.186;2023-01-16T02:36:16;4.10;74.90
810;DHT22;387;48.772;9.186;2023-01-16T02:38:49;4.10;74.80
810;DHT22;387;48.772;9.186;2023-01-16T02:43:57;4.20;74.50
810;DHT22;387;48.772;9.186;2023-01-16T02:49:18;4.20;74.50
810;DHT22;387;48.772;9.186;2023-01-16T02:51:58;4.20;74.60
810;DHT22;387;48.772;9.186;2023-01-16T02:54:42;4.20;74.60
810;DHT22;387;48.772;9.186;2023-01-16T02:57:17;4.20;74.60
810;DHT22;387;48.772;9.186;2023-01-16T02:59:43;4.10;74.80
810;DHT22;387;48.772;9.186;2023-01-16T03:02:09;4.10;74.80
810;DHT22;387;48.772;9.186;2023-01-16T03:04:49;4.10;74.80
810;DHT22;387;48.772;9.186;2023-01-16T03:07:38;4.10;74.80
810;DHT22;387;48.772;9.186;2023-01-16T03:10:34;4.10;74.80
810;DHT22;387;48.772;9.186;2023-01-16T03:16:01;4.10;74.80
810;DHT22;387;48.772;9.186;2023-01-16T03:18:57;4.20;74.60
810;DHT22;387;48.772;9.186;2023-01-16T03:26:47;4.20;74.30
810;DHT22;387;48.772;9.186;2023-01-16T03:31:54;4.30;74.00
810;DHT22;387;48.772;9.186;2023-01-16T03:34:23;4.30;74.00
810;DHT22;387;48.772;9.186;2023-01-16T03:37:02;4.30;74.20
810;DHT22;387;48.772;9.186;2023-01-16T03:39:33;4.30;73.90
810;DHT22;387;48.772;9.186;2023-01-16T03:42:04;4.20;74.30
810;DHT22;387;48.772;9.186;2023-01-16T03:44:36;4.20;74.20
810;DHT22;387;48.772;9.186;2023-01-16T03:47:07;4.20;74.50
810;DHT22;387;48.772;9.186;2023-01-16T03:49:38;4.10;74.30
810;DHT22;387;48.772;9.186;2023-01-16T03:52:07;4.10;74.60
810;DHT22;387;48.772;9.186;2023-01-16T03:57:39;4.10;74.60
810;DHT22;387;48.772;9.186;2023-01-16T04:00:07;4.00;74.80
810;DHT22;387;48.772;9.186;2023-01-16T04:02:44;3.90;75.10
810;DHT22;387;48.772;9.186;2023-01-16T04:05:18;3.80;75.40
810;DHT22;387;48.772;9.186;2023-01-16T04:07:53;3.80;75.40
810;DHT22;387;48.772;9.186;2023-01-16T04:10:24;3.80;75.40
810;DHT22;387;48.772;9.186;2023-01-16T04:12:53;3.70;75.70
810;DHT22;387;48.772;9.186;2023-01-16T04:15:21;3.60;76.20
810;DHT22;387;48.772;9.186;2023-01-16T04:17:48;3.60;76.40
810;DHT22;387;48.772;9.186;2023-01-16T04:20:14;3.50;76.50
810;DHT22;387;48.772;9.186;2023-01-16T04:22:39;3.50;77.00
810;DHT22;387;48.772;9.186;2023-01-16T04:25:07;3.50;77.00
810;DHT22;387;48.772;9.186;2023-01-16T04:27:33;3.50;77.00
810;DHT22;387;48.772;9.186;2023-01-16T04:29:59;3.50;76.70
810;DHT22;387;48.772;9.186;2023-01-16T04:32:25;3.40;76.70
810;DHT22;387;48.772;9.186;2023-01-16T04:34:50;3.40;76.80
810;DHT22;387;48.772;9.186;2023-01-16T04:37:17;3.50;77.10
810;DHT22;387;48.772;9.186;2023-01-16T04:39:43;3.40;77.30
810;DHT22;387;48.772;9.186;2023-01-16T04:42:09;3.40;77.40
810;DHT22;387;48.772;9.186;2023-01-16T04:44:35;3.30;77.80
810;DHT22;387;48.772;9.186;2023-01-16T04:47:01;3.30;77.80
810;DHT22;387;48.772;9.186;2023-01-16T04:49:26;3.20;78.30
810;DHT22;387;48.772;9.186;2023-01-16T04:51:52;3.10;78.60
810;DHT22;387;48.772;9.186;2023-01-16T04:54:19;3.10;78.90
810;DHT22;387;48.772;9.186;2023-01-16T04:56:45;3.20;78.90
810;DHT22;387;48.772;9.186;2023-01-16T04:59:11;3.10;78.90
810;DHT22;387;48.772;9.186;2023-01-16T05:01:39;3.10;79.00
810;DHT22;387;48.772;9.186;2023-01-16T05:04:07;3.00;79.00
810;DHT22;387;48.772;9.186;2023-01-16T05:06:33;3.00;79.50
810;DHT22;387;48.772;9.186;2023-01-16T05:09:00;3.00;79.20
810;DHT22;387;48.772;9.186;2023-01-16T05:11:25;3.00;79.30
810;DHT22;387;48.772;9.186;2023-01-16T05:13:51;2.90;79.60
810;DHT22;387;48.772;9.186;2023-01-16T05:16:17;2.90;79.70
810;DHT22;387;48.772;9.186;2023-01-16T05:18:46;2.90;80.00
810;DHT22;387;48.772;9.186;2023-01-16T05:21:11;2.90;80.30
810;DHT22;387;48.772;9.186;2023-01-16T05:23:37;2.90;80.00
810;DHT22;387;48.772;9.186;2023-01-16T05:26:03;2.90;80.50
810;DHT22;387;48.772;9.186;2023-01-16T05:28:29;2.90;80.50
810;DHT22;387;48.772;9.186;2023-01-16T05:30:56;2.80;80.60
810;DHT22;387;48.772;9.186;2023-01-16T05:33:21;2.80;80.80
810;DHT22;387;48.772;9.186;2023-01-16T05:35:48;2.80;80.90
810;DHT22;387;48.772;9.186;2023-01-16T05:38:14;2.80;80.90
810;DHT22;387;48.772;9.186;2023-01-16T05:40:40;2.80;81.10
810;DHT22;387;48.772;9.186;2023-01-16T05:43:05;2.80;81.10
810;DHT22;387;48.772;9.186;2023-01-16T05:45:31;2.80;81.10
810;DHT22;387;48.772;9.186;2023-01-16T05:47:57;2.70;81.40
810;DHT22;387;48.772;9.186;2023-01-16T05:50:23;2.70;81.40
810;DHT22;387;48.772;9.186;2023-01-16T05:52:49;2.70;81.50
810;DHT22;387;48.772;9.186;2023-01-16T05:55:14;2.70;81.50
810;DHT22;387;48.772;9.186;2023-01-16T05:57:40;2.80;81.10
810;DHT22;387;48.772;9.186;2023-01-16T06:00:06;2.80;80.80
810;DHT22;387;48.772;9.186;2023-01-16T06:02:32;2.70;80.80
810;DHT22;387;48.772;9.186;2023-01-16T06:04:57;2.70;80.90
810;DHT22;387;48.772;9.186;2023-01-16T06:07:23;2.70;80.80
810;DHT22;387;48.772;9.186;2023-01-16T06:09:49;2.80;80.60
810;DHT22;387;48.772;9.186;2023-01-16T06:12:15;2.80;80.50
810;DHT22;387;48.772;9.186;2023-01-16T06:14:42;2.80;80.30
810;DHT22;387;48.772;9.186;2023-01-16T06:17:08;2.80;80.20
810;DHT22;387;48.772;9.186;2023-01-16T06:19:33;2.80;79.90
810;DHT22;387;48.772;9.186;2023-01-16T06:21:59;2.90;79.70
810;DHT22;387;48.772;9.186;2023-01-16T06:24:24;2.90;79.30
810;DHT22;387;48.772;9.186;2023-01-16T06:26:50;3.00;79.30
810;DHT22;387;48.772;9.186;2023-01-16T06:29:16;3.10;79.00
810;DHT22;387;48.772;9.186;2023-01-16T06:31:41;3.10;78.70
810;DHT22;387;48.772;9.186;2023-01-16T06:34:07;3.20;78.60
810;DHT22;387;48.772;9.186;2023-01-16T06:36:32;3.20;78.60
810;DHT22;387;48.772;9.186;2023-01-16T06:38:58;3.20;78.60
810;DHT22;387;48.772;9.186;2023-01-16T06:41:23;3.20;78.60
810;DHT22;387;48.772;9.186;2023-01-16T06:43:49;3.20;78.40
810;DHT22;387;48.772;9.186;2023-01-16T06:46:15;3.20;78.30
810;DHT22;387;48.772;9.186;2023-01-16T06:48:40;3.20;78.10
810;DHT22;387;48.772;9.186;2023-01-16T06:51:08;3.20;78.00
810;DHT22;387;48.772;9.186;2023-01-16T06:53:35;3.30;77.60
810;DHT22;387;48.772;9.186;2023-01-16T06:56:00;3.30;77.60
810;DHT22;387;48.772;9.186;2023-01-16T06:58:26;3.30;77.40
810;DHT22;387;48.772;9.186;2023-01-16T07:00:52;3.30;77.30
810;DHT22;387;48.772;9.186;2023-01-16T07:03:18;3.40;76.80
810;DHT22;387;48.772;9.186;2023-01-16T07:05:45;3.40;76.80
810;DHT22;387;48.772;9.186;2023-01-16T07:08:10;3.40;76.70
810;DHT22;387;48.772;9.186;2023-01-16T07:10:38;3.40;76.70
810;DHT22;387;48.772;9.186;2023-01-16T07:13:04;3.40;76.50
810;DHT22;387;48.772;9.186;2023-01-16T07:15:30;3.50;76.40
810;DHT22;387;48.772;9.186;2023-01-16T07:18:15;3.50;76.10
810;DHT22;387;48.772;9.186;2023-01-16T07:21:02;3.50;76.10
810;DHT22;387;48.772;9.186;2023-01-16T07:23:50;3.50;75.90
810;DHT22;387;48.772;9.186;2023-01-16T07:26:18;3.60;75.80
810;DHT22;387;48.772;9.186;2023-01-16T07:28:45;3.60;75.70
810;DHT22;387;48.772;9.186;2023-01-16T07:31:12;3.60;75.70
810;DHT22;387;48.772;9.186;2023-01-16T07:33:38;3.60;75.40
810;DHT22;387;48.772;9.186;2023-01-16T07:36:04;3.70;75.10
810;DHT22;387;48.772;9.186;2023-01-16T07:38:30;3.70;75.10
810;DHT22;387;48.772;9.186;2023-01-16T07:40:56;3.80;74.90
810;DHT22;387;48.772;9.186;2023-01-16T07:43:21;3.80;74.80
810;DHT22;387;48.772;9.186;2023-01-16T07:45:47;3.80;74.80
810;DHT22;387;48.772;9.186;2023-01-16T07:48:18;3.90;74.80
810;DHT22;387;48.772;9.186;2023-01-16T07:50:52;3.90;75.20
810;DHT22;387;48.772;9.186;2023-01-16T07:53:19;4.00;74.90
810;DHT22;387;48.772;9.186;2023-01-16T07:55:48;4.00;74.50
810;DHT22;387;48.772;9.186;2023-01-16T07:58:14;4.00;74.50
810;DHT22;387;48.772;9.186;2023-01-16T08:00:40;4.00;74.60
810;DHT22;387;48.772;9.186;2023-01-16T08:03:05;4.10;74.50
810;DHT22;387;48.772;9.186;2023-01-16T08:05:31;4.10;74.20
810;DHT22;387;48.772;9.186;2023-01-16T08:07:56;4.00;74.20
810;DHT22;387;48.772;9.186;2023-01-16T08:10:22;4.10;74.50
810;DHT22;387;48.772;9.186;2023-01-16T08:12:47;4.20;74.30
810;DHT22;387;48.772;9.186;2023-01-16T08:15:13;4.20;74.00
810;DHT22;387;48.772;9.186;2023-01-16T08:17:39;4.30;73.70
810;DHT22;387;48.772;9.186;2023-01-16T08:20:08;4.30;73.30
810;DHT22;387;48.772;9.186;2023-01-16T08:22:34;4.30;73.20
810;DHT22;387;48.772;9.186;2023-01-16T08:25:00;4.30;73.20
810;DHT22;387;48.772;9.186;2023-01-16T08:27:25;4.40;72.40
810;DHT22;387;48.772;9.186;2023-01-16T08:29:51;4.40;72.40
810;DHT22;387;48.772;9.186;2023-01-16T08:32:17;4.50;72.30
810;DHT22;387;48.772;9.186;2023-01-16T08:34:42;4.60;72.60
810;DHT22;387;48.772;9.186;2023-01-16T08:37:08;4.60;72.40
810;DHT22;387;48.772;9.186;2023-01-16T08:39:36;4.70;72.30
810;DHT22;387;48.772;9.186;2023-01-16T08:42:02;4.70;72.10
810;DHT22;387;48.772;9.186;2023-01-16T08:44:46;4.80;71.80
810;DHT22;387;48.772;9.186;2023-01-16T08:47:30;4.80;71.30
810;DHT22;387;48.772;9.186;2023-01-16T08:50:17;4.80;71.40
810;DHT22;387;48.772;9.186;2023-01-16T08:53:01;4.80;71.40
810;DHT22;387;48.772;9.186;2023-01-16T08:55:27;4.80;70.80
810;DHT22;387;48.772;9.186;2023-01-16T08:57:52;4.90;71.10
810;DHT22;387;48.772;9.186;2023-01-16T09:00:18;4.90;70.80
810;DHT22;387;48.772;9.186;2023-01-16T09:02:47;4.90;70.80
810;DHT22;387;48.772;9.186;2023-01-16T09:05:12;4.90;70.80
810;DHT22;387;48.772;9.186;2023-01-16T09:07:39;4.90;70.70
810;DHT22;387;48.772;9.186;2023-01-16T09:10:05;4.90;70.70
810;DHT22;387;48.772;9.186;2023-01-16T09:12:31;4.90;70.70
810;DHT22;387;48.772;9.186;2023-01-16T09:15:15;4.90;70.50
810;DHT22;387;48.772;9.186;2023-01-16T09:17:41;4.90;70.70
810;DHT22;387;48.772;9.186;2023-01-16T09:20:07;5.00;70.10
810;DHT22;387;48.772;9.186;2023-01-16T09:22:33;5.00;69.80
810;DHT22;387;48.772;9.186;2023-01-16T09:24:58;5.10;69.20
810;DHT22;387;48.772;9.186;2023-01-16T09:27:24;5.10;67.90
810;DHT22;387;48.772;9.186;2023-01-16T09:29:50;5.10;68.50
810;DHT22;387;48.772;9.186;2023-01-16T09:32:16;5.10;68.30
810;DHT22;387;48.772;9.186;2023-01-16T09:34:43;5.20;67.70
810;DHT22;387;48.772;9.186;2023-01-16T09:37:09;5.30;67.50
810;DHT22;387;48.772;9.186;2023-01-16T09:39:35;5.30;67.60
810;DHT22;387;48.772;9.186;2023-01-16T09:45:00;5.50;67.00
810;DHT22;387;48.772;9.186;2023-01-16T09:47:28;5.70;66.40
810;DHT22;387;48.772;9.186;2023-01-16T09:49:59;5.70;66.40
810;DHT22;387;48.772;9.186;2023-01-16T09:52:29;5.80;66.10
810;DHT22;387;48.772;9.186;2023-01-16T09:55:56;5.90;65.30
810;DHT22;387;48.772;9.186;2023-01-16T09:58:37;5.90;65.40
810;DHT22;387;48.772;9.186;2023-01-16T10:01:27;6.00;64.80
810;DHT22;387;48.772;9.186;2023-01-16T10:04:01;5.90;64.20
810;DHT22;387;48.772;9.186;2023-01-16T10:06:34;5.90;63.90
810;DHT22;387;48.772;9.186;2023-01-16T10:11:45;5.90;63.40
810;DHT22;387;48.772;9.186;2023-01-16T10:16:53;6.10;63.20
810;DHT22;387;48.772;9.186;2023-01-16T10:22:27;6.10;62.00
810;DHT22;387;48.772;9.186;2023-01-16T10:25:11;6.20;61.30
810;DHT22;387;48.772;9.186;2023-01-16T10:30:18;6.00;61.30
810;DHT22;387;48.772;9.186;2023-01-16T10:32:50;6.00;61.50
810;DHT22;387;48.772;9.186;2023-01-16T10:35:23;6.00;61.60
810;DHT22;387;48.772;9.186;2023-01-16T10:37:49;6.10;61.70
810;DHT22;387;48.772;9.186;2023-01-16T10:42:46;6.20;61.00
810;DHT22;387;48.772;9.186;2023-01-16T10:45:35;6.20;60.30
810;DHT22;387;48.772;9.186;2023-01-16T10:48:20;6.20;59.90
810;DHT22;387;48.772;9.186;2023-01-16T10:51:05;6.20;60.10
810;DHT22;387;48.772;9.186;2023-01-16T10:53:34;6.20;60.70
810;DHT22;387;48.772;9.186;2023-01-16T10:56:00;6.30;60.70
810;DHT22;387;48.772;9.186;2023-01-16T10:58:34;6.30;61.00
810;DHT22;387;48.772;9.186;2023-01-16T11:01:21;6.40;61.30
810;DHT22;387;48.772;9.186;2023-01-16T11:03:50;6.50;61.60
810;DHT22;387;48.772;9.186;2023-01-16T11:06:28;6.50;62.50
810;DHT22;387;48.772;9.186;2023-01-16T11:09:02;6.50;63.70
810;DHT22;387;48.772;9.186;2023-01-16T11:11:28;6.50;62.90
810;DHT22;387;48.772;9.186;2023-01-16T11:14:25;6.50;63.10
810;DHT22;387;48.772;9.186;2023-01-16T11:17:23;6.60;63.10
810;DHT22;387;48.772;9.186;2023-01-16T11:20:13;6.70;64.10
810;DHT22;387;48.772;9.186;2023-01-16T11:22:40;6.60;66.30
810;DHT22;387;48.772;9.186;2023-01-16T11:25:06;6.60;67.30
810;DHT22;387;48.772;9.186;2023-01-16T11:27:37;6.60;68.50
810;DHT22;387;48.772;9.186;2023-01-16T11:30:06;6.50;69.20
810;DHT22;387;48.772;9.186;2023-01-16T11:32:35;6.50;69.70
810;DHT22;387;48.772;9.186;2023-01-16T11:35:10;6.50;70.20
810;DHT22;387;48.772;9.186;2023-01-16T11:37:37;6.50;70.70
810;DHT22;387;48.772;9.186;2023-01-16T11:40:04;6.50;70.80
810;DHT22;387;48.772;9.186;2023-01-16T11:42:33;6.50;70.80
810;DHT22;387;48.772;9.186;2023-01-16T11:45:19;6.50;70.70
810;DHT22;387;48.772;9.186;2023-01-16T11:48:06;6.60;70.80
810;DHT22;387;48.772;9.186;2023-01-16T11:50:56;6.50;70.50
810;DHT22;387;48.772;9.186;2023-01-16T11:53:22;6.60;70.20
810;DHT22;387;48.772;9.186;2023-01-16T12:02:27;6.70;70.10
810;DHT22;387;48.772;9.186;2023-01-16T12:36:59;6.90;71.70
810;DHT22;387;48.772;9.186;2023-01-16T12:42:19;6.90;71.70
810;DHT22;387;48.772;9.186;2023-01-16T12:45:35;7.00;71.70
810;DHT22;387;48.772;9.186;2023-01-16T12:56:46;7.20;71.40
810;DHT22;387;48.772;9.186;2023-01-16T12:59:49;7.30;70.80
810;DHT22;387;48.772;9.186;2023-01-16T13:04:53;7.30;70.70
810;DHT22;387;48.772;9.186;2023-01-16T13:07:22;7.40;70.80
810;DHT22;387;48.772;9.186;2023-01-16T13:09:57;7.50;70.70
810;DHT22;387;48.772;9.186;2023-01-16T13:12:43;7.50;70.50
810;DHT22;387;48.772;9.186;2023-01-16T13:15:36;7.60;70.50
810;DHT22;387;48.772;9.186;2023-01-16T13:18:16;7.70;70.20
810;DHT22;387;48.772;9.186;2023-01-16T13:20:45;7.70;70.10
810;DHT22;387;48.772;9.186;2023-01-16T13:23:17;7.80;69.80
810;DHT22;387;48.772;9.186;2023-01-16T13:25:46;7.90;69.50
810;DHT22;387;48.772;9.186;2023-01-16T13:31:02;7.90;69.50
810;DHT22;387;48.772;9.186;2023-01-16T13:33:31;8.00;69.40
810;DHT22;387;48.772;9.186;2023-01-16T13:41:43;8.30;67.30
810;DHT22;387;48.772;9.186;2023-01-16T13:44:17;8.40;66.90
810;DHT22;387;48.772;9.186;2023-01-16T13:47:12;8.50;66.60
810;DHT22;387;48.772;9.186;2023-01-16T13:49:39;8.40;66.60
810;DHT22;387;48.772;9.186;2023-01-16T13:52:18;8.50;66.60
810;DHT22;387;48.772;9.186;2023-01-16T13:54:47;8.60;66.30
810;DHT22;387;48.772;9.186;2023-01-16T13:57:22;8.50;65.70
810;DHT22;387;48.772;9.186;2023-01-16T14:00:02;8.40;65.70
810;DHT22;387;48.772;9.186;2023-01-16T14:13:24;8.10;66.00
810;DHT22;387;48.772;9.186;2023-01-16T14:15:58;8.00;66.00
810;DHT22;387;48.772;9.186;2023-01-16T14:24:03;7.90;67.00
810;DHT22;387;48.772;9.186;2023-01-16T14:26:50;7.80;67.20
810;DHT22;387;48.772;9.186;2023-01-16T14:29:20;7.80;67.60
810;DHT22;387;48.772;9.186;2023-01-16T14:34:27;7.70;68.60
810;DHT22;387;48.772;9.186;2023-01-16T14:37:01;7.60;68.90
810;DHT22;387;48.772;9.186;2023-01-16T14:39:38;7.40;69.80
810;DHT22;387;48.772;9.186;2023-01-16T14:42:34;7.30;70.50
810;DHT22;387;48.772;9.186;2023-01-16T14:45:29;7.20;70.80
810;DHT22;387;48.772;9.186;2023-01-16T14:56:59;7.00;71.40
810;DHT22;387;48.772;9.186;2023-01-16T14:59:30;7.10;71.40
810;DHT22;387;48.772;9.186;2023-01-16T15:02:25;7.00;71.30
810;DHT22;387;48.772;9.186;2023-01-16T15:07:47;7.00;70.80
810;DHT22;387;48.772;9.186;2023-01-16T15:10:19;7.00;70.80
810;DHT22;387;48.772;9.186;2023-01-16T15:12:45;7.00;70.70
810;DHT22;387;48.772;9.186;2023-01-16T15:15:27;7.00;70.70
810;DHT22;387;48.772;9.186;2023-01-16T15:17:56;7.00;70.50
810;DHT22;387;48.772;9.186;2023-01-16T15:20:43;6.90;70.80
810;DHT22;387;48.772;9.186;2023-01-16T15:23:30;7.00;70.80
810;DHT22;387;48.772;9.186;2023-01-16T15:29:32;6.90;71.10
810;DHT22;387;48.772;9.186;2023-01-16T15:32:00;7.00;70.80
810;DHT22;387;48.772;9.186;2023-01-16T15:34:30;7.00;70.80
810;DHT22;387;48.772;9.186;2023-01-16T15:36:58;7.10;71.30
810;DHT22;387;48.772;9.186;2023-01-16T15:39:31;7.00;72.30
810;DHT22;387;48.772;9.186;2023-01-16T15:45:28;6.80;73.70
810;DHT22;387;48.772;9.186;2023-01-16T15:53:15;6.50;76.20
810;DHT22;387;48.772;9.186;2023-01-16T15:55:49;6.40;76.70
810;DHT22;387;48.772;9.186;2023-01-16T15:58:20;6.30;77.10
810;DHT22;387;48.772;9.186;2023-01-16T16:01:14;6.20;77.60
810;DHT22;387;48.772;9.186;2023-01-16T16:03:43;6.20;78.10
810;DHT22;387;48.772;9.186;2023-01-16T16:06:11;6.10;78.60
810;DHT22;387;48.772;9.186;2023-01-16T16:08:41;6.00;78.70
810;DHT22;387;48.772;9.186;2023-01-16T16:11:16;6.00;79.20
810;DHT22;387;48.772;9.186;2023-01-16T16:14:02;6.00;79.50
810;DHT22;387;48.772;9.186;2023-01-16T16:16:28;5.90;79.90
810;DHT22;387;48.772;9.186;2023-01-16T16:19:31;5.90;80.60
810;DHT22;387;48.772;9.186;2023-01-16T16:22:01;5.80;81.20
810;DHT22;387;48.772;9.186;2023-01-16T16:24:47;5.70;82.10
810;DHT22;387;48.772;9.186;2023-01-16T16:27:15;5.70;82.50
810;DHT22;387;48.772;9.186;2023-01-16T16:29:51;5.70;82.80
810;DHT22;387;48.772;9.186;2023-01-16T16:32:17;5.60;82.80
810;DHT22;387;48.772;9.186;2023-01-16T16:34:54;5.60;83.00
810;DHT22;387;48.772;9.186;2023-01-16T16:37:22;5.50;83.70
810;DHT22;387;48.772;9.186;2023-01-16T16:40:01;5.50;84.00
810;DHT22;387;48.772;9.186;2023-01-16T16:47:35;5.30;86.00
810;DHT22;387;48.772;9.186;2023-01-16T16:50:34;5.20;86.30
810;DHT22;387;48.772;9.186;2023-01-16T16:53:24;5.10;87.40
810;DHT22;387;48.772;9.186;2023-01-16T16:56:09;5.10;88.10
810;DHT22;387;48.772;9.186;2023-01-16T16:58:44;5.00;88.70
810;DHT22;387;48.772;9.186;2023-01-16T17:01:15;4.90;89.50
810;DHT22;387;48.772;9.186;2023-01-16T17:03:43;4.80;89.90
810;DHT22;387;48.772;9.186;2023-01-16T17:06:23;4.70;90.30
810;DHT22;387;48.772;9.186;2023-01-16T17:08:49;4.60;90.60
810;DHT22;387;48.772;9.186;2023-01-16T17:11:15;4.60;90.90
810;DHT22;387;48.772;9.186;2023-01-16T17:13:41;4.50;91.00
810;DHT22;387;48.772;9.186;2023-01-16T17:16:19;4.60;91.10
810;DHT22;387;48.772;9.186;2023-01-16T17:18:46;4.60;91.20
810;DHT22;387;48.772;9.186;2023-01-16T17:21:14;4.50;91.10
810;DHT22;387;48.772;9.186;2023-01-16T17:23:41;4.60;91.10
810;DHT22;387;48.772;9.186;2023-01-16T17:26:07;4.60;91.00
810;DHT22;387;48.772;9.186;2023-01-16T17:28:35;4.60;91.20
810;DHT22;387;48.772;9.186;2023-01-16T17:31:01;4.60;91.30
810;DHT22;387;48.772;9.186;2023-01-16T17:33:26;4.50;91.30
810;DHT22;387;48.772;9.186;2023-01-16T17:35:54;4.50;91.40
810;DHT22;387;48.772;9.186;2023-01-16T17:38:39;4.50;91.50
810;DHT22;387;48.772;9.186;2023-01-16T17:41:11;4.50;91.60
810;DHT22;387;48.772;9.186;2023-01-16T17:43:38;4.50;91.50
810;DHT22;387;48.772;9.186;2023-01-16T17:46:22;4.40;91.40
810;DHT22;387;48.772;9.186;2023-01-16T17:48:50;4.40;91.50
810;DHT22;387;48.772;9.186;2023-01-16T17:51:16;4.40;91.70
810;DHT22;387;48.772;9.186;2023-01-16T17:53:47;4.40;91.70
810;DHT22;387;48.772;9.186;2023-01-16T17:56:13;4.40;91.50
810;DHT22;387;48.772;9.186;2023-01-16T17:58:39;4.40;91.40
810;DHT22;387;48.772;9.186;2023-01-16T18:01:21;4.40;91.30
810;DHT22;387;48.772;9.186;2023-01-16T18:03:50;4.40;91.50
810;DHT22;387;48.772;9.186;2023-01-16T18:06:35;4.40;91.30
810;DHT22;387;48.772;9.186;2023-01-16T18:09:01;4.40;91.30
810;DHT22;387;48.772;9.186;2023-01-16T18:11:33;4.40;91.20
810;DHT22;387;48.772;9.186;2023-01-16T18:14:17;4.40;91.10
810;DHT22;387;48.772;9.186;2023-01-16T18:17:02;4.50;90.80
810;DHT22;387;48.772;9.186;2023-01-16T18:19:46;4.50;90.60
810;DHT22;387;48.772;9.186;2023-01-16T18:22:12;4.50;90.60
810;DHT22;387;48.772;9.186;2023-01-16T18:24:43;4.50;90.40
810;DHT22;387;48.772;9.186;2023-01-16T18:27:12;4.50;90.40
810;DHT22;387;48.772;9.186;2023-01-16T18:29:38;4.50;90.10
810;DHT22;387;48.772;9.186;2023-01-16T18:32:05;4.40;90.10
810;DHT22;387;48.772;9.186;2023-01-16T18:34:53;4.40;90.10
810;DHT22;387;48.772;9.186;2023-01-16T18:37:33;4.40;90.50
810;DHT22;387;48.772;9.186;2023-01-16T18:40:04;4.40;90.20
810;DHT22;387;48.772;9.186;2023-01-16T18:42:49;4.40;90.00
810;DHT22;387;48.772;9.186;2023-01-16T18:45:33;4.40;89.70
810;DHT22;387;48.772;9.186;2023-01-16T18:48:18;4.50;89.50
810;DHT22;387;48.772;9.186;2023-01-16T18:51:08;4.50;88.70
810;DHT22;387;48.772;9.186;2023-01-16T18:53:54;4.50;88.70
810;DHT22;387;48.772;9.186;2023-01-16T18:56:40;4.50;88.90
810;DHT22;387;48.772;9.186;2023-01-16T18:59:26;4.50;88.40
810;DHT22;387;48.772;9.186;2023-01-16T19:04:38;4.50;88.40
810;DHT22;387;48.772;9.186;2023-01-16T19:07:14;4.50;88.60
810;DHT22;387;48.772;9.186;2023-01-16T19:09:41;4.50;88.60
810;DHT22;387;48.772;9.186;2023-01-16T19:12:09;4.50;88.90
810;DHT22;387;48.772;9.186;2023-01-16T19:14:39;4.40;89.50
810;DHT22;387;48.772;9.186;2023-01-16T19:17:05;4.40;89.50
810;DHT22;387;48.772;9.186;2023-01-16T19:19:31;4.40;89.60
810;DHT22;387;48.772;9.186;2023-01-16T19:21:58;4.30;89.90
810;DHT22;387;48.772;9.186;2023-01-16T19:24:24;4.30;90.20
810;DHT22;387;48.772;9.186;2023-01-16T19:26:52;4.30;90.00
810;DHT22;387;48.772;9.186;2023-01-16T19:29:19;4.20;90.30
810;DHT22;387;48.772;9.186;2023-01-16T19:31:46;4.20;90.40
810;DHT22;387;48.772;9.186;2023-01-16T19:34:12;4.20;90.30
810;DHT22;387;48.772;9.186;2023-01-16T19:36:38;4.10;90.70
810;DHT22;387;48.772;9.186;2023-01-16T19:39:05;4.10;90.50
810;DHT22;387;48.772;9.186;2023-01-16T19:41:32;4.10;90.50
810;DHT22;387;48.772;9.186;2023-01-16T19:44:16;4.10;90.50
810;DHT22;387;48.772;9.186;2023-01-16T19:47:00;4.10;90.50
810;DHT22;387;48.772;9.186;2023-01-16T19:49:25;4.00;90.50
810;DHT22;387;48.772;9.186;2023-01-16T19:51:51;4.00;90.50
810;DHT22;387;48.772;9.186;2023-01-16T19:54:19;4.00;90.40
810;DHT22;387;48.772;9.186;2023-01-16T19:56:45;4.00;90.00
810;DHT22;387;48.772;9.186;2023-01-16T19:59:10;4.10;89.50
810;DHT22;387;48.772;9.186;2023-01-16T20:01:59;4.10;89.50